sensor_id;sensor_type;location;lat;lon;timestamp;P1;durP1;ratioP1;P2;durP2;ratioP2
3718;SDS011;1875;52.492;6.860;2023-05-16T00:01:17;20.10;;;3.07;;
3718;SDS011;1875;52.492;6.860;2023-05-16T00:03:45;22.73;;;3.70;;
3718;SDS011;1875;52.492;6.860;2023-05-16T00:06:12;12.20;;;3.53;;
3718;SDS011;1875;52.492;6.860;2023-05-16T00:08:40;14.43;;;4.00;;
3718;SDS011;1875;52.492;6.860;2023-05-16T00:11:08;31.50;;;5.30;;
3718;SDS011;1875;52.492;6.860;2023-05-16T00:13:36;24.73;;;3.63;;
3718;SDS011;1875;52.492;6.860;2023-05-16T00:16:04;18.53;;;3.77;;
3718;SDS011;1875;52.492;6.860;2023-05-16T00:18:33;24.23;;;3.90;;
3718;SDS011;1875;52.492;6.860;2023-05-16T00:21:02;18.60;;;3.40;;
3718;SDS011;1875;52.492;6.860;2023-05-16T00:23:30;12.17;;;3.03;;
3718;SDS011;1875;52.492;6.860;2023-05-16T00:25:58;18.23;;;3.70;;
3718;SDS011;1875;52.492;6.860;2023-05-16T00:28:26;18.30;;;3.47;;
3718;SDS011;1875;52.492;6.860;2023-05-16T00:30:54;18.13;;;3.30;;
3718;SDS011;1875;52.492;6.860;2023-05-16T00:33:21;20.00;;;4.70;;
3718;SDS011;1875;52.492;6.860;2023-05-16T00:35:51;22.70;;;3.80;;
3718;SDS011;1875;52.492;6.860;2023-05-16T00:38:19;15.87;;;3.47;;
3718;SDS011;1875;52.492;6.860;2023-05-16T00:40:46;25.57;;;4.07;;
3718;SDS011;1875;52.492;6.860;2023-05-16T00:43:14;18.90;;;4.10;;
3718;SDS011;1875;52.492;6.860;2023-05-16T00:45:42;24.87;;;4.37;;
3718;SDS011;1875;52.492;6.860;2023-05-16T00:48:10;13.40;;;3.77;;
3718;SDS011;1875;52.492;6.860;2023-05-16T00:50:39;25.60;;;3.90;;
3718;SDS011;1875;52.492;6.860;2023-05-16T00:53:08;13.23;;;2.80;;
3718;SDS011;1875;52.492;6.860;2023-05-16T00:55:36;17.63;;;3.10;;
3718;SDS011;1875;52.492;6.860;2023-05-16T00:58:04;15.40;;;3.43;;
3718;SDS011;1875;52.492;6.860;2023-05-16T01:00:32;18.17;;;3.87;;
3718;SDS011;1875;52.492;6.860;2023-05-16T01:03:00;23.03;;;4.93;;
3718;SDS011;1875;52.492;6.860;2023-05-16T01:05:29;11.73;;;3.43;;
3718;SDS011;1875;52.492;6.860;2023-05-16T01:07:57;18.13;;;4.00;;
3718;SDS011;1875;52.492;6.860;2023-05-16T01:10:26;17.13;;;3.57;;
3718;SDS011;1875;52.492;6.860;2023-05-16T01:13:00;22.60;;;4.23;;
3718;SDS011;1875;52.492;6.860;2023-05-16T01:15:35;23.10;;;3.50;;
3718;SDS011;1875;52.492;6.860;2023-05-16T01:18:08;18.70;;;3.67;;
3718;SDS011;1875;52.492;6.860;2023-05-16T01:20:42;27.53;;;4.23;;
3718;SDS011;1875;52.492;6.860;2023-05-16T01:23:19;25.17;;;4.07;;
3718;SDS011;1875;52.492;6.860;2023-05-16T01:26:06;15.30;;;3.40;;
3718;SDS011;1875;52.492;6.860;2023-05-16T01:28:39;21.40;;;4.40;;
3718;SDS011;1875;52.492;6.860;2023-05-16T01:31:08;15.57;;;3.77;;
3718;SDS011;1875;52.492;6.860;2023-05-16T01:33:35;14.93;;;3.83;;
3718;SDS011;1875;52.492;6.860;2023-05-16T01:36:05;19.77;;;3.43;;
3718;SDS011;1875;52.492;6.860;2023-05-16T01:38:38;19.93;;;3.23;;
3718;SDS011;1875;52.492;6.860;2023-05-16T01:41:11;22.57;;;4.13;;
3718;SDS011;1875;52.492;6.860;2023-05-16T01:43:43;16.00;;;2.97;;
3718;SDS011;1875;52.492;6.860;2023-05-16T01:46:14;21.33;;;3.20;;
3718;SDS011;1875;52.492;6.860;2023-05-16T01:48:48;25.60;;;4.80;;
3718;SDS011;1875;52.492;6.860;2023-05-16T01:51:20;16.87;;;3.87;;
3718;SDS011;1875;52.492;6.860;2023-05-16T01:53:48;17.70;;;3.90;;
3718;SDS011;1875;52.492;6.860;2023-05-16T01:56:18;19.33;;;3.77;;
3718;SDS011;1875;52.492;6.860;2023-05-16T01:58:46;20.57;;;4.20;;
3718;SDS011;1875;52.492;6.860;2023-05-16T02:01:15;18.77;;;3.60;;
3718;SDS011;1875;52.492;6.860;2023-05-16T02:03:43;21.33;;;4.20;;
3718;SDS011;1875;52.492;6.860;2023-05-16T02:06:10;26.70;;;3.90;;
3718;SDS011;1875;52.492;6.860;2023-05-16T02:08:38;20.60;;;4.37;;
3718;SDS011;1875;52.492;6.860;2023-05-16T02:11:06;21.03;;;4.17;;
3718;SDS011;1875;52.492;6.860;2023-05-16T02:13:35;21.83;;;3.80;;
3718;SDS011;1875;52.492;6.860;2023-05-16T02:16:03;21.57;;;3.70;;
3718;SDS011;1875;52.492;6.860;2023-05-16T02:18:31;26.03;;;4.10;;
3718;SDS011;1875;52.492;6.860;2023-05-16T02:20:59;22.53;;;4.17;;
3718;SDS011;1875;52.492;6.860;2023-05-16T02:23:26;17.73;;;3.27;;
3718;SDS011;1875;52.492;6.860;2023-05-16T02:25:54;18.53;;;4.47;;
3718;SDS011;1875;52.492;6.860;2023-05-16T02:28:22;26.00;;;3.80;;
3718;SDS011;1875;52.492;6.860;2023-05-16T02:30:56;15.67;;;3.97;;
3718;SDS011;1875;52.492;6.860;2023-05-16T02:33:24;23.10;;;3.47;;
3718;SDS011;1875;52.492;6.860;2023-05-16T02:35:52;19.17;;;3.47;;
3718;SDS011;1875;52.492;6.860;2023-05-16T02:38:20;20.27;;;3.80;;
3718;SDS011;1875;52.492;6.860;2023-05-16T02:40:48;20.30;;;2.97;;
3718;SDS011;1875;52.492;6.860;2023-05-16T02:43:16;16.03;;;4.00;;
3718;SDS011;1875;52.492;6.860;2023-05-16T02:45:44;22.90;;;3.77;;
3718;SDS011;1875;52.492;6.860;2023-05-16T02:48:13;16.57;;;3.17;;
3718;SDS011;1875;52.492;6.860;2023-05-16T02:50:41;24.77;;;3.57;;
3718;SDS011;1875;52.492;6.860;2023-05-16T02:53:08;27.83;;;3.57;;
3718;SDS011;1875;52.492;6.860;2023-05-16T02:55:36;19.50;;;4.03;;
3718;SDS011;1875;52.492;6.860;2023-05-16T02:58:05;19.10;;;4.23;;
3718;SDS011;1875;52.492;6.860;2023-05-16T03:00:33;32.37;;;4.30;;
3718;SDS011;1875;52.492;6.860;2023-05-16T03:03:01;18.40;;;3.23;;
3718;SDS011;1875;52.492;6.860;2023-05-16T03:05:31;19.07;;;3.80;;
3718;SDS011;1875;52.492;6.860;2023-05-16T03:07:58;18.03;;;3.70;;
3718;SDS011;1875;52.492;6.860;2023-05-16T03:10:26;23.90;;;4.73;;
3718;SDS011;1875;52.492;6.860;2023-05-16T03:12:54;17.70;;;4.10;;
3718;SDS011;1875;52.492;6.860;2023-05-16T03:15:22;18.90;;;4.17;;
3718;SDS011;1875;52.492;6.860;2023-05-16T03:17:50;25.90;;;4.17;;
3718;SDS011;1875;52.492;6.860;2023-05-16T03:20:18;20.77;;;3.97;;
3718;SDS011;1875;52.492;6.860;2023-05-16T03:22:47;27.33;;;4.17;;
3718;SDS011;1875;52.492;6.860;2023-05-16T03:25:15;19.50;;;4.10;;
3718;SDS011;1875;52.492;6.860;2023-05-16T03:27:42;20.97;;;4.73;;
3718;SDS011;1875;52.492;6.860;2023-05-16T03:30:10;25.47;;;5.90;;
3718;SDS011;1875;52.492;6.860;2023-05-16T03:32:39;18.03;;;4.23;;
3718;SDS011;1875;52.492;6.860;2023-05-16T03:35:07;25.00;;;4.10;;
3718;SDS011;1875;52.492;6.860;2023-05-16T03:37:37;26.70;;;4.87;;
3718;SDS011;1875;52.492;6.860;2023-05-16T03:40:07;20.37;;;4.03;;
3718;SDS011;1875;52.492;6.860;2023-05-16T03:42:36;20.27;;;3.93;;
3718;SDS011;1875;52.492;6.860;2023-05-16T03:45:04;24.27;;;4.17;;
3718;SDS011;1875;52.492;6.860;2023-05-16T03:47:33;22.27;;;3.47;;
3718;SDS011;1875;52.492;6.860;2023-05-16T03:50:01;19.67;;;3.93;;
3718;SDS011;1875;52.492;6.860;2023-05-16T03:52:29;18.37;;;4.07;;
3718;SDS011;1875;52.492;6.860;2023-05-16T03:54:56;25.63;;;4.40;;
3718;SDS011;1875;52.492;6.860;2023-05-16T03:57:25;18.37;;;3.57;;
3718;SDS011;1875;52.492;6.860;2023-05-16T03:59:53;26.10;;;3.73;;
3718;SDS011;1875;52.492;6.860;2023-05-16T04:02:21;21.83;;;4.47;;
3718;SDS011;1875;52.492;6.860;2023-05-16T04:04:49;21.00;;;4.23;;
3718;SDS011;1875;52.492;6.860;2023-05-16T04:07:16;18.67;;;3.70;;
3718;SDS011;1875;52.492;6.860;2023-05-16T04:09:47;20.27;;;3.47;;
3718;SDS011;1875;52.492;6.860;2023-05-16T04:12:15;20.20;;;3.30;;
3718;SDS011;1875;52.492;6.860;2023-05-16T04:14:44;19.73;;;4.13;;
3718;SDS011;1875;52.492;6.860;2023-05-16T04:17:12;13.07;;;3.27;;
3718;SDS011;1875;52.492;6.860;2023-05-16T04:19:40;26.77;;;5.33;;
3718;SDS011;1875;52.492;6.860;2023-05-16T04:22:08;16.50;;;3.83;;
3718;SDS011;1875;52.492;6.860;2023-05-16T04:24:35;17.33;;;3.20;;
3718;SDS011;1875;52.492;6.860;2023-05-16T04:27:03;20.53;;;3.00;;
3718;SDS011;1875;52.492;6.860;2023-05-16T04:29:34;20.43;;;3.03;;
3718;SDS011;1875;52.492;6.860;2023-05-16T04:32:03;14.57;;;2.70;;
3718;SDS011;1875;52.492;6.860;2023-05-16T04:34:32;20.33;;;3.70;;
3718;SDS011;1875;52.492;6.860;2023-05-16T04:37:05;10.00;;;2.70;;
3718;SDS011;1875;52.492;6.860;2023-05-16T04:39:34;18.80;;;3.10;;
3718;SDS011;1875;52.492;6.860;2023-05-16T04:42:02;16.40;;;3.33;;
3718;SDS011;1875;52.492;6.860;2023-05-16T04:44:30;12.00;;;3.03;;
3718;SDS011;1875;52.492;6.860;2023-05-16T04:46:59;23.73;;;3.87;;
3718;SDS011;1875;52.492;6.860;2023-05-16T04:49:28;20.37;;;3.00;;
3718;SDS011;1875;52.492;6.860;2023-05-16T04:51:56;20.90;;;3.73;;
3718;SDS011;1875;52.492;6.860;2023-05-16T04:54:24;17.60;;;3.13;;
3718;SDS011;1875;52.492;6.860;2023-05-16T04:56:52;23.77;;;3.67;;
3718;SDS011;1875;52.492;6.860;2023-05-16T04:59:20;22.93;;;3.37;;
3718;SDS011;1875;52.492;6.860;2023-05-16T05:01:48;13.63;;;2.90;;
3718;SDS011;1875;52.492;6.860;2023-05-16T05:04:16;17.90;;;3.63;;
3718;SDS011;1875;52.492;6.860;2023-05-16T05:06:45;14.93;;;3.37;;
3718;SDS011;1875;52.492;6.860;2023-05-16T05:09:13;16.67;;;3.13;;
3718;SDS011;1875;52.492;6.860;2023-05-16T05:11:40;15.20;;;3.03;;
3718;SDS011;1875;52.492;6.860;2023-05-16T05:14:08;18.73;;;3.73;;
3718;SDS011;1875;52.492;6.860;2023-05-16T05:16:36;16.57;;;3.07;;
3718;SDS011;1875;52.492;6.860;2023-05-16T05:19:04;15.63;;;2.67;;
3718;SDS011;1875;52.492;6.860;2023-05-16T05:21:31;13.03;;;2.67;;
3718;SDS011;1875;52.492;6.860;2023-05-16T05:24:01;16.30;;;3.00;;
3718;SDS011;1875;52.492;6.860;2023-05-16T05:26:29;18.53;;;2.97;;
3718;SDS011;1875;52.492;6.860;2023-05-16T05:28:57;12.43;;;2.90;;
3718;SDS011;1875;52.492;6.860;2023-05-16T05:31:31;13.77;;;3.40;;
3718;SDS011;1875;52.492;6.860;2023-05-16T05:34:00;12.27;;;2.50;;
3718;SDS011;1875;52.492;6.860;2023-05-16T05:36:28;10.63;;;2.17;;
3718;SDS011;1875;52.492;6.860;2023-05-16T05:38:56;17.97;;;3.27;;
3718;SDS011;1875;52.492;6.860;2023-05-16T05:41:25;9.30;;;2.10;;
3718;SDS011;1875;52.492;6.860;2023-05-16T05:43:53;14.53;;;2.93;;
3718;SDS011;1875;52.492;6.860;2023-05-16T05:46:21;12.73;;;2.90;;
3718;SDS011;1875;52.492;6.860;2023-05-16T05:48:49;20.90;;;2.80;;
3718;SDS011;1875;52.492;6.860;2023-05-16T05:51:16;13.57;;;2.20;;
3718;SDS011;1875;52.492;6.860;2023-05-16T05:53:44;10.37;;;3.07;;
3718;SDS011;1875;52.492;6.860;2023-05-16T05:56:12;9.70;;;2.10;;
3718;SDS011;1875;52.492;6.860;2023-05-16T05:58:41;15.47;;;3.13;;
3718;SDS011;1875;52.492;6.860;2023-05-16T06:01:09;9.10;;;2.20;;
3718;SDS011;1875;52.492;6.860;2023-05-16T06:03:37;15.73;;;2.77;;
3718;SDS011;1875;52.492;6.860;2023-05-16T06:06:05;17.30;;;2.83;;
3718;SDS011;1875;52.492;6.860;2023-05-16T06:08:33;11.67;;;2.20;;
3718;SDS011;1875;52.492;6.860;2023-05-16T06:11:01;10.70;;;2.50;;
3718;SDS011;1875;52.492;6.860;2023-05-16T06:13:29;14.17;;;3.70;;
3718;SDS011;1875;52.492;6.860;2023-05-16T06:15:58;16.67;;;2.77;;
3718;SDS011;1875;52.492;6.860;2023-05-16T06:18:25;11.03;;;2.40;;
3718;SDS011;1875;52.492;6.860;2023-05-16T06:20:53;8.43;;;2.93;;
3718;SDS011;1875;52.492;6.860;2023-05-16T06:23:21;10.67;;;2.17;;
3718;SDS011;1875;52.492;6.860;2023-05-16T06:25:49;12.60;;;2.43;;
3718;SDS011;1875;52.492;6.860;2023-05-16T06:28:17;13.30;;;2.53;;
3718;SDS011;1875;52.492;6.860;2023-05-16T06:30:44;7.97;;;1.90;;
3718;SDS011;1875;52.492;6.860;2023-05-16T06:33:14;18.07;;;2.53;;
3718;SDS011;1875;52.492;6.860;2023-05-16T06:35:42;15.07;;;2.50;;
3718;SDS011;1875;52.492;6.860;2023-05-16T06:38:10;11.53;;;3.33;;
3718;SDS011;1875;52.492;6.860;2023-05-16T06:40:37;13.07;;;2.70;;
3718;SDS011;1875;52.492;6.860;2023-05-16T06:43:05;10.20;;;3.13;;
3718;SDS011;1875;52.492;6.860;2023-05-16T06:45:33;7.57;;;1.93;;
3718;SDS011;1875;52.492;6.860;2023-05-16T06:48:02;8.70;;;2.53;;
3718;SDS011;1875;52.492;6.860;2023-05-16T06:50:31;13.07;;;2.40;;
3718;SDS011;1875;52.492;6.860;2023-05-16T06:53:00;10.80;;;2.03;;
3718;SDS011;1875;52.492;6.860;2023-05-16T06:55:30;10.40;;;2.00;;
3718;SDS011;1875;52.492;6.860;2023-05-16T06:57:57;7.57;;;1.83;;
3718;SDS011;1875;52.492;6.860;2023-05-16T07:00:25;14.00;;;1.93;;
3718;SDS011;1875;52.492;6.860;2023-05-16T07:02:53;14.07;;;2.40;;
3718;SDS011;1875;52.492;6.860;2023-05-16T07:05:21;15.60;;;2.37;;
3718;SDS011;1875;52.492;6.860;2023-05-16T07:07:50;13.07;;;2.23;;
3718;SDS011;1875;52.492;6.860;2023-05-16T07:10:18;13.60;;;2.87;;
3718;SDS011;1875;52.492;6.860;2023-05-16T07:12:46;12.93;;;2.60;;
3718;SDS011;1875;52.492;6.860;2023-05-16T07:15:14;6.87;;;1.83;;
3718;SDS011;1875;52.492;6.860;2023-05-16T07:17:42;13.93;;;2.97;;
3718;SDS011;1875;52.492;6.860;2023-05-16T07:20:10;9.37;;;1.70;;
3718;SDS011;1875;52.492;6.860;2023-05-16T07:22:40;12.50;;;2.10;;
3718;SDS011;1875;52.492;6.860;2023-05-16T07:25:09;8.50;;;2.70;;
3718;SDS011;1875;52.492;6.860;2023-05-16T07:27:38;11.37;;;2.23;;
3718;SDS011;1875;52.492;6.860;2023-05-16T07:30:07;7.97;;;2.00;;
3718;SDS011;1875;52.492;6.860;2023-05-16T07:32:36;9.30;;;2.27;;
3718;SDS011;1875;52.492;6.860;2023-05-16T07:35:04;15.23;;;2.43;;
3718;SDS011;1875;52.492;6.860;2023-05-16T07:37:32;17.10;;;2.30;;
3718;SDS011;1875;52.492;6.860;2023-05-16T07:40:01;10.93;;;1.97;;
3718;SDS011;1875;52.492;6.860;2023-05-16T07:42:31;16.27;;;2.03;;
3718;SDS011;1875;52.492;6.860;2023-05-16T07:44:58;8.80;;;1.83;;
3718;SDS011;1875;52.492;6.860;2023-05-16T07:47:27;11.23;;;1.80;;
3718;SDS011;1875;52.492;6.860;2023-05-16T07:49:55;7.33;;;1.60;;
3718;SDS011;1875;52.492;6.860;2023-05-16T07:52:22;12.53;;;2.57;;
3718;SDS011;1875;52.492;6.860;2023-05-16T07:54:51;8.93;;;1.57;;
3718;SDS011;1875;52.492;6.860;2023-05-16T07:57:18;4.50;;;1.37;;
3718;SDS011;1875;52.492;6.860;2023-05-16T07:59:51;14.57;;;1.73;;
3718;SDS011;1875;52.492;6.860;2023-05-16T08:02:19;11.00;;;1.70;;
3718;SDS011;1875;52.492;6.860;2023-05-16T08:04:47;9.20;;;1.63;;
3718;SDS011;1875;52.492;6.860;2023-05-16T08:07:15;6.53;;;1.93;;
3718;SDS011;1875;52.492;6.860;2023-05-16T08:09:43;8.23;;;2.20;;
3718;SDS011;1875;52.492;6.860;2023-05-16T08:12:11;4.60;;;1.53;;
3718;SDS011;1875;52.492;6.860;2023-05-16T08:14:38;6.00;;;1.40;;
3718;SDS011;1875;52.492;6.860;2023-05-16T08:17:08;8.10;;;1.70;;
3718;SDS011;1875;52.492;6.860;2023-05-16T08:19:35;7.47;;;1.60;;
3718;SDS011;1875;52.492;6.860;2023-05-16T08:22:05;5.67;;;1.83;;
3718;SDS011;1875;52.492;6.860;2023-05-16T08:24:33;9.10;;;1.73;;
3718;SDS011;1875;52.492;6.860;2023-05-16T08:27:01;10.07;;;1.63;;
3718;SDS011;1875;52.492;6.860;2023-05-16T08:29:28;10.00;;;1.63;;
3718;SDS011;1875;52.492;6.860;2023-05-16T08:31:57;9.07;;;1.40;;
3718;SDS011;1875;52.492;6.860;2023-05-16T08:34:26;4.10;;;1.50;;
3718;SDS011;1875;52.492;6.860;2023-05-16T08:36:54;10.47;;;2.07;;
3718;SDS011;1875;52.492;6.860;2023-05-16T08:39:21;5.23;;;1.50;;
3718;SDS011;1875;52.492;6.860;2023-05-16T08:41:49;7.87;;;1.63;;
3718;SDS011;1875;52.492;6.860;2023-05-16T08:44:17;6.30;;;1.20;;
3718;SDS011;1875;52.492;6.860;2023-05-16T08:46:49;5.77;;;1.37;;
3718;SDS011;1875;52.492;6.860;2023-05-16T08:49:18;8.47;;;1.67;;
3718;SDS011;1875;52.492;6.860;2023-05-16T08:51:47;6.93;;;1.57;;
3718;SDS011;1875;52.492;6.860;2023-05-16T08:54:15;11.53;;;2.40;;
3718;SDS011;1875;52.492;6.860;2023-05-16T08:56:43;5.90;;;1.57;;
3718;SDS011;1875;52.492;6.860;2023-05-16T08:59:12;5.40;;;1.30;;
3718;SDS011;1875;52.492;6.860;2023-05-16T09:01:39;5.33;;;1.60;;
3718;SDS011;1875;52.492;6.860;2023-05-16T09:04:08;5.03;;;1.17;;
3718;SDS011;1875;52.492;6.860;2023-05-16T09:06:36;5.30;;;1.17;;
3718;SDS011;1875;52.492;6.860;2023-05-16T09:09:05;5.63;;;1.57;;
3718;SDS011;1875;52.492;6.860;2023-05-16T09:11:38;8.60;;;1.63;;
3718;SDS011;1875;52.492;6.860;2023-05-16T09:14:06;9.57;;;2.60;;
3718;SDS011;1875;52.492;6.860;2023-05-16T09:16:33;9.30;;;1.20;;
3718;SDS011;1875;52.492;6.860;2023-05-16T09:19:01;18.87;;;1.17;;
3718;SDS011;1875;52.492;6.860;2023-05-16T09:21:31;7.27;;;1.70;;
3718;SDS011;1875;52.492;6.860;2023-05-16T09:24:01;4.83;;;1.57;;
3718;SDS011;1875;52.492;6.860;2023-05-16T09:26:32;10.30;;;1.37;;
3718;SDS011;1875;52.492;6.860;2023-05-16T09:29:01;5.90;;;1.80;;
3718;SDS011;1875;52.492;6.860;2023-05-16T09:31:29;11.07;;;1.50;;
3718;SDS011;1875;52.492;6.860;2023-05-16T09:34:03;10.03;;;2.07;;
3718;SDS011;1875;52.492;6.860;2023-05-16T09:36:31;4.30;;;1.17;;
3718;SDS011;1875;52.492;6.860;2023-05-16T09:38:59;6.97;;;1.23;;
3718;SDS011;1875;52.492;6.860;2023-05-16T09:41:27;8.67;;;1.27;;
3718;SDS011;1875;52.492;6.860;2023-05-16T09:43:56;6.43;;;1.27;;
3718;SDS011;1875;52.492;6.860;2023-05-16T09:46:24;18.37;;;2.57;;
3718;SDS011;1875;52.492;6.860;2023-05-16T09:48:53;4.70;;;1.43;;
3718;SDS011;1875;52.492;6.860;2023-05-16T09:51:21;7.53;;;1.57;;
3718;SDS011;1875;52.492;6.860;2023-05-16T09:53:49;4.57;;;1.07;;
3718;SDS011;1875;52.492;6.860;2023-05-16T09:56:17;10.27;;;2.17;;
3718;SDS011;1875;52.492;6.860;2023-05-16T09:58:45;8.67;;;1.70;;
3718;SDS011;1875;52.492;6.860;2023-05-16T10:01:14;7.13;;;1.50;;
3718;SDS011;1875;52.492;6.860;2023-05-16T10:03:42;3.80;;;1.27;;
3718;SDS011;1875;52.492;6.860;2023-05-16T10:06:10;10.00;;;1.67;;
3718;SDS011;1875;52.492;6.860;2023-05-16T10:08:39;7.53;;;1.57;;
3718;SDS011;1875;52.492;6.860;2023-05-16T10:11:09;9.43;;;1.80;;
3718;SDS011;1875;52.492;6.860;2023-05-16T10:13:37;7.93;;;1.50;;
3718;SDS011;1875;52.492;6.860;2023-05-16T10:16:06;8.80;;;1.97;;
3718;SDS011;1875;52.492;6.860;2023-05-16T10:18:37;7.43;;;1.70;;
3718;SDS011;1875;52.492;6.860;2023-05-16T10:21:06;9.10;;;1.87;;
3718;SDS011;1875;52.492;6.860;2023-05-16T10:23:37;9.07;;;1.70;;
3718;SDS011;1875;52.492;6.860;2023-05-16T10:26:08;9.07;;;1.90;;
3718;SDS011;1875;52.492;6.860;2023-05-16T10:28:39;7.13;;;1.70;;
3718;SDS011;1875;52.492;6.860;2023-05-16T10:31:07;8.70;;;1.70;;
3718;SDS011;1875;52.492;6.860;2023-05-16T10:33:38;6.33;;;1.40;;
3718;SDS011;1875;52.492;6.860;2023-05-16T10:36:06;9.07;;;1.90;;
3718;SDS011;1875;52.492;6.860;2023-05-16T10:38:34;4.93;;;1.40;;
3718;SDS011;1875;52.492;6.860;2023-05-16T10:41:03;6.83;;;1.77;;
3718;SDS011;1875;52.492;6.860;2023-05-16T10:43:31;8.17;;;1.97;;
3718;SDS011;1875;52.492;6.860;2023-05-16T10:46:01;5.90;;;1.40;;
3718;SDS011;1875;52.492;6.860;2023-05-16T10:48:31;6.37;;;1.33;;
3718;SDS011;1875;52.492;6.860;2023-05-16T10:51:01;6.13;;;1.27;;
3718;SDS011;1875;52.492;6.860;2023-05-16T10:53:30;8.70;;;2.13;;
3718;SDS011;1875;52.492;6.860;2023-05-16T10:56:08;4.10;;;1.37;;
3718;SDS011;1875;52.492;6.860;2023-05-16T10:58:43;8.40;;;1.87;;
3718;SDS011;1875;52.492;6.860;2023-05-16T11:01:17;6.20;;;1.27;;
3718;SDS011;1875;52.492;6.860;2023-05-16T11:04:03;11.93;;;2.17;;
3718;SDS011;1875;52.492;6.860;2023-05-16T11:06:48;7.33;;;1.37;;
3718;SDS011;1875;52.492;6.860;2023-05-16T11:09:22;6.23;;;1.37;;
3718;SDS011;1875;52.492;6.860;2023-05-16T11:11:53;5.23;;;0.83;;
3718;SDS011;1875;52.492;6.860;2023-05-16T11:14:23;7.00;;;1.30;;
3718;SDS011;1875;52.492;6.860;2023-05-16T11:16:53;5.13;;;1.40;;
3718;SDS011;1875;52.492;6.860;2023-05-16T11:19:30;11.50;;;2.63;;
3718;SDS011;1875;52.492;6.860;2023-05-16T11:22:10;6.33;;;1.63;;
3718;SDS011;1875;52.492;6.860;2023-05-16T11:24:47;8.27;;;1.97;;
3718;SDS011;1875;52.492;6.860;2023-05-16T11:27:21;5.33;;;1.60;;
3718;SDS011;1875;52.492;6.860;2023-05-16T11:29:50;9.93;;;1.60;;
3718;SDS011;1875;52.492;6.860;2023-05-16T11:32:18;4.80;;;1.00;;
3718;SDS011;1875;52.492;6.860;2023-05-16T11:34:47;9.03;;;1.80;;
3718;SDS011;1875;52.492;6.860;2023-05-16T11:37:17;2.90;;;1.13;;
3718;SDS011;1875;52.492;6.860;2023-05-16T11:39:46;9.00;;;1.80;;
3718;SDS011;1875;52.492;6.860;2023-05-16T11:42:15;3.60;;;1.53;;
3718;SDS011;1875;52.492;6.860;2023-05-16T11:44:43;7.33;;;1.40;;
3718;SDS011;1875;52.492;6.860;2023-05-16T11:47:11;4.33;;;1.20;;
3718;SDS011;1875;52.492;6.860;2023-05-16T11:49:39;7.80;;;1.20;;
3718;SDS011;1875;52.492;6.860;2023-05-16T11:52:06;6.40;;;1.47;;
3718;SDS011;1875;52.492;6.860;2023-05-16T11:54:36;6.43;;;2.37;;
3718;SDS011;1875;52.492;6.860;2023-05-16T11:57:04;9.23;;;1.60;;
3718;SDS011;1875;52.492;6.860;2023-05-16T11:59:32;7.83;;;1.60;;
3718;SDS011;1875;52.492;6.860;2023-05-16T12:02:02;6.27;;;1.40;;
3718;SDS011;1875;52.492;6.860;2023-05-16T12:04:30;8.40;;;1.43;;
3718;SDS011;1875;52.492;6.860;2023-05-16T12:06:59;5.37;;;1.53;;
3718;SDS011;1875;52.492;6.860;2023-05-16T12:09:27;8.27;;;2.20;;
3718;SDS011;1875;52.492;6.860;2023-05-16T12:11:56;7.20;;;1.70;;
3718;SDS011;1875;52.492;6.860;2023-05-16T12:14:24;5.83;;;1.37;;
3718;SDS011;1875;52.492;6.860;2023-05-16T12:16:52;5.63;;;1.33;;
3718;SDS011;1875;52.492;6.860;2023-05-16T12:19:21;5.10;;;1.30;;
3718;SDS011;1875;52.492;6.860;2023-05-16T12:21:52;7.47;;;1.70;;
3718;SDS011;1875;52.492;6.860;2023-05-16T12:24:20;6.20;;;1.47;;
3718;SDS011;1875;52.492;6.860;2023-05-16T12:26:48;10.80;;;1.63;;
3718;SDS011;1875;52.492;6.860;2023-05-16T12:29:21;8.30;;;1.73;;
3718;SDS011;1875;52.492;6.860;2023-05-16T12:31:51;4.37;;;1.50;;
3718;SDS011;1875;52.492;6.860;2023-05-16T12:34:20;4.70;;;1.50;;
3718;SDS011;1875;52.492;6.860;2023-05-16T12:36:51;5.23;;;1.37;;
3718;SDS011;1875;52.492;6.860;2023-05-16T12:39:19;6.53;;;1.40;;
3718;SDS011;1875;52.492;6.860;2023-05-16T12:41:48;11.57;;;1.80;;
3718;SDS011;1875;52.492;6.860;2023-05-16T12:44:16;6.10;;;1.80;;
3718;SDS011;1875;52.492;6.860;2023-05-16T12:46:48;8.23;;;1.80;;
3718;SDS011;1875;52.492;6.860;2023-05-16T12:49:18;6.17;;;1.73;;
3718;SDS011;1875;52.492;6.860;2023-05-16T12:51:47;6.83;;;1.80;;
3718;SDS011;1875;52.492;6.860;2023-05-16T12:54:16;7.10;;;1.93;;
3718;SDS011;1875;52.492;6.860;2023-05-16T12:56:44;4.50;;;1.20;;
3718;SDS011;1875;52.492;6.860;2023-05-16T12:59:12;7.97;;;1.60;;
3718;SDS011;1875;52.492;6.860;2023-05-16T13:01:40;14.33;;;2.50;;
3718;SDS011;1875;52.492;6.860;2023-05-16T13:04:11;7.93;;;1.73;;
3718;SDS011;1875;52.492;6.860;2023-05-16T13:06:42;6.37;;;1.87;;
3718;SDS011;1875;52.492;6.860;2023-05-16T13:09:22;7.00;;;2.07;;
3718;SDS011;1875;52.492;6.860;2023-05-16T13:11:52;4.07;;;1.67;;
3718;SDS011;1875;52.492;6.860;2023-05-16T13:14:20;7.43;;;1.33;;
3718;SDS011;1875;52.492;6.860;2023-05-16T13:16:48;5.50;;;1.73;;
3718;SDS011;1875;52.492;6.860;2023-05-16T13:19:18;6.80;;;1.63;;
3718;SDS011;1875;52.492;6.860;2023-05-16T13:21:48;8.97;;;2.33;;
3718;SDS011;1875;52.492;6.860;2023-05-16T13:24:16;6.23;;;1.90;;
3718;SDS011;1875;52.492;6.860;2023-05-16T13:26:44;5.60;;;1.90;;
3718;SDS011;1875;52.492;6.860;2023-05-16T13:29:11;6.40;;;1.47;;
3718;SDS011;1875;52.492;6.860;2023-05-16T13:31:40;7.90;;;2.20;;
3718;SDS011;1875;52.492;6.860;2023-05-16T13:34:08;5.37;;;1.67;;
3718;SDS011;1875;52.492;6.860;2023-05-16T13:36:37;8.53;;;2.50;;
3718;SDS011;1875;52.492;6.860;2023-05-16T13:39:19;4.53;;;2.10;;
3718;SDS011;1875;52.492;6.860;2023-05-16T13:41:48;6.93;;;1.93;;
3718;SDS011;1875;52.492;6.860;2023-05-16T13:44:15;11.30;;;2.97;;
3718;SDS011;1875;52.492;6.860;2023-05-16T13:46:43;6.80;;;1.97;;
3718;SDS011;1875;52.492;6.860;2023-05-16T13:49:11;5.37;;;1.93;;
3718;SDS011;1875;52.492;6.860;2023-05-16T13:51:40;11.67;;;2.43;;
3718;SDS011;1875;52.492;6.860;2023-05-16T13:54:08;6.30;;;1.80;;
3718;SDS011;1875;52.492;6.860;2023-05-16T13:56:36;5.67;;;1.80;;
3718;SDS011;1875;52.492;6.860;2023-05-16T13:59:04;6.50;;;1.93;;
3718;SDS011;1875;52.492;6.860;2023-05-16T14:01:33;5.87;;;1.90;;
3718;SDS011;1875;52.492;6.860;2023-05-16T14:04:01;8.83;;;2.50;;
3718;SDS011;1875;52.492;6.860;2023-05-16T14:06:30;5.10;;;1.77;;
3718;SDS011;1875;52.492;6.860;2023-05-16T14:09:00;9.13;;;2.33;;
3718;SDS011;1875;52.492;6.860;2023-05-16T14:11:28;5.10;;;2.10;;
3718;SDS011;1875;52.492;6.860;2023-05-16T14:13:56;8.77;;;2.87;;
3718;SDS011;1875;52.492;6.860;2023-05-16T14:16:24;5.17;;;2.17;;
3718;SDS011;1875;52.492;6.860;2023-05-16T14:18:52;6.83;;;2.30;;
3718;SDS011;1875;52.492;6.860;2023-05-16T14:21:20;6.57;;;1.93;;
3718;SDS011;1875;52.492;6.860;2023-05-16T14:23:48;9.93;;;2.43;;
3718;SDS011;1875;52.492;6.860;2023-05-16T14:26:17;5.40;;;2.37;;
3718;SDS011;1875;52.492;6.860;2023-05-16T14:28:47;6.70;;;2.70;;
3718;SDS011;1875;52.492;6.860;2023-05-16T14:31:16;5.00;;;2.10;;
3718;SDS011;1875;52.492;6.860;2023-05-16T14:33:44;4.50;;;2.30;;
3718;SDS011;1875;52.492;6.860;2023-05-16T14:36:12;9.03;;;2.37;;
3718;SDS011;1875;52.492;6.860;2023-05-16T14:38:39;10.93;;;3.17;;
3718;SDS011;1875;52.492;6.860;2023-05-16T14:41:07;6.97;;;2.77;;
3718;SDS011;1875;52.492;6.860;2023-05-16T14:43:36;10.83;;;3.67;;
3718;SDS011;1875;52.492;6.860;2023-05-16T14:46:04;9.00;;;2.47;;
3718;SDS011;1875;52.492;6.860;2023-05-16T14:48:32;5.60;;;2.47;;
3718;SDS011;1875;52.492;6.860;2023-05-16T14:51:00;8.73;;;2.50;;
3718;SDS011;1875;52.492;6.860;2023-05-16T14:53:28;8.30;;;2.57;;
3718;SDS011;1875;52.492;6.860;2023-05-16T14:55:55;5.97;;;2.43;;
3718;SDS011;1875;52.492;6.860;2023-05-16T14:58:23;9.80;;;2.60;;
3718;SDS011;1875;52.492;6.860;2023-05-16T15:00:53;8.37;;;3.23;;
3718;SDS011;1875;52.492;6.860;2023-05-16T15:03:21;5.30;;;2.37;;
3718;SDS011;1875;52.492;6.860;2023-05-16T15:05:49;7.70;;;2.87;;
3718;SDS011;1875;52.492;6.860;2023-05-16T15:08:17;5.37;;;2.73;;
3718;SDS011;1875;52.492;6.860;2023-05-16T15:10:46;6.23;;;2.73;;
3718;SDS011;1875;52.492;6.860;2023-05-16T15:13:13;6.83;;;3.17;;
3718;SDS011;1875;52.492;6.860;2023-05-16T15:15:41;9.67;;;2.93;;
3718;SDS011;1875;52.492;6.860;2023-05-16T15:18:10;10.53;;;3.87;;